Portada
METAR-TAF:

METAR-TAF

Aeroports :

Sandpoint Airport (Dave Wall Field)

Sandpoint, Idaho, Estats Units d'Amèrica

latitud: 48-17-58N, longitud: 116-33-36W, altitud: 648 m

Observació

L'informe es va fer fa 7 minuts, a les 02:55 UTC
Vent 4 kt del Sud
Temperatura 3°C
Humitat 100%
Pressió 1014 hPa
Visibilitat: 11.3 km
Núvols disperses a una alçada de 1400 ft
Núvols disperses a una alçada de 2100 ft
Cel cobert a una alçada de 3100 ft
pluja

METAR: KSZT 250255Z AUTO 19004KT 7SM -RA SCT014 SCT021 OVC031 03/03 A2995 RMK AO2

Hora: 19:02 (03:02 UTC)


TAF: manca

Observacions i pronòstics meteorològics de més de 4000 aeroports (METAR i TAF).

Les estacions disponibles són els punts grocs i vermells al mapa.

Posi el ratolí al punt desitjat per veure el nom de l'estació.

Feu clic per veure les observacions i els pronòstics meteorològics.

Per canviar el mapa: feu clic els botons verds amb una creu de color negre per apropar; al botó verd amb un guió per allunyar la imatge; o en les fletxes verdes per a mapes adjacents.


METAR-TAF: